createdAt,value
2018-10-21T00:01:43.582Z,97.80
2018-10-21T00:07:06.103Z,97.80
2018-10-21T00:13:31.022Z,97.80
2018-10-21T00:18:53.410Z,97.90
2018-10-21T00:24:15.370Z,97.90
2018-10-21T00:29:36.953Z,98.00
2018-10-21T00:34:59.046Z,98.00
2018-10-21T00:40:21.185Z,98.30
2018-10-21T00:45:43.173Z,98.00
2018-10-21T00:51:05.003Z,98.10
2018-10-21T00:56:27.175Z,98.20
2018-10-21T01:01:48.954Z,98.40
2018-10-21T01:07:11.044Z,98.20
2018-10-21T01:12:33.066Z,98.50
2018-10-21T01:17:55.234Z,98.70
2018-10-21T01:23:17.187Z,98.60
2018-10-21T01:28:39.340Z,98.30
2018-10-21T01:34:01.255Z,98.80
2018-10-21T01:40:33.222Z,98.50
2018-10-21T01:45:55.682Z,98.60
2018-10-21T01:51:17.726Z,98.90
2018-10-21T01:56:39.934Z,98.70
2018-10-21T02:02:01.645Z,98.60
2018-10-21T02:07:23.701Z,98.60
2018-10-21T02:12:45.504Z,98.60
2018-10-21T02:18:07.953Z,98.70
2018-10-21T02:23:29.701Z,98.90
2018-10-21T02:28:51.791Z,98.90
2018-10-21T02:34:13.574Z,98.90
2018-10-21T02:39:36.465Z,98.70
2018-10-21T02:44:58.578Z,99.00
2018-10-21T02:50:21.082Z,99.00
2018-10-21T02:55:43.039Z,99.10
2018-10-21T03:01:04.823Z,99.00
2018-10-21T03:06:26.835Z,99.00
2018-10-21T03:11:48.735Z,99.20
2018-10-21T03:17:10.915Z,98.70
2018-10-21T03:22:32.960Z,98.80
2018-10-21T03:27:54.986Z,98.80
2018-10-21T03:33:17.007Z,98.70
2018-10-21T03:38:39.050Z,98.60
2018-10-21T03:44:00.938Z,98.70
2018-10-21T03:49:23.011Z,98.60
2018-10-21T03:54:48.513Z,98.50
2018-10-21T04:00:10.806Z,98.50
2018-10-21T04:05:33.222Z,98.20
2018-10-21T04:10:56.267Z,98.60
2018-10-21T04:16:18.203Z,98.70
2018-10-21T04:21:40.220Z,98.60
2018-10-21T04:27:03.250Z,99.00
2018-10-21T04:32:25.102Z,99.20
2018-10-21T04:40:01.079Z,99.20
2018-10-21T04:45:23.533Z,99.00
2018-10-21T04:50:45.614Z,98.60
2018-10-21T04:56:07.789Z,98.40
2018-10-21T05:01:29.757Z,98.90
2018-10-21T05:06:51.871Z,98.90
2018-10-21T05:12:13.756Z,98.80
2018-10-21T05:17:35.999Z,98.60
2018-10-21T05:22:58.063Z,98.40
2018-10-21T05:28:20.150Z,98.50
2018-10-21T05:33:47.640Z,98.90
2018-10-21T05:39:11.375Z,98.70
2018-10-21T05:44:33.315Z,98.60
2018-10-21T05:49:55.050Z,98.60
2018-10-21T05:55:17.386Z,99.00
2018-10-21T06:00:39.138Z,98.90
2018-10-21T06:06:01.713Z,98.70
2018-10-21T06:11:24.011Z,98.80
2018-10-21T06:16:48.644Z,98.80
2018-10-21T06:22:10.481Z,98.90
2018-10-21T06:27:32.536Z,99.10
2018-10-21T06:32:54.519Z,99.00
2018-10-21T06:38:16.670Z,99.00
2018-10-21T06:43:38.616Z,99.00
2018-10-21T06:49:00.989Z,99.10
2018-10-21T06:54:22.910Z,99.50
2018-10-21T06:59:45.333Z,99.60
2018-10-21T07:05:12.815Z,99.30
2018-10-21T07:10:35.178Z,99.60
2018-10-21T07:15:57.329Z,99.60
2018-10-21T07:21:19.865Z,99.50
2018-10-21T07:26:42.067Z,99.20
2018-10-21T07:32:03.938Z,99.10
2018-10-21T07:37:26.170Z,99.00
2018-10-21T07:42:48.353Z,99.10
2018-10-21T07:48:10.546Z,99.00
2018-10-21T07:53:32.426Z,99.00
2018-10-21T07:58:54.462Z,98.90
2018-10-21T08:04:16.707Z,98.90
2018-10-21T08:09:38.685Z,98.70
2018-10-21T08:15:01.006Z,98.50
2018-10-21T08:20:22.910Z,98.20
2018-10-21T08:25:47.550Z,98.10
2018-10-21T08:31:09.270Z,97.90
2018-10-21T08:36:31.506Z,97.90
2018-10-21T08:41:53.632Z,97.70
2018-10-21T08:47:15.891Z,97.70
2018-10-21T08:52:37.800Z,97.30
2018-10-21T08:58:00.038Z,97.10
2018-10-21T09:03:24.294Z,97.00
2018-10-21T09:08:46.294Z,96.40
2018-10-21T09:14:08.549Z,96.80
2018-10-21T09:19:30.654Z,96.20
2018-10-21T09:24:52.758Z,95.70
2018-10-21T09:30:17.351Z,95.50
2018-10-21T09:35:39.172Z,95.10
2018-10-21T09:41:01.250Z,94.90
2018-10-21T09:46:23.151Z,94.60
2018-10-21T09:51:44.958Z,93.70
2018-10-21T09:57:07.423Z,93.90
2018-10-21T10:02:34.530Z,93.10
2018-10-21T10:07:56.885Z,93.20
2018-10-21T10:13:19.022Z,92.50
2018-10-21T10:18:41.258Z,91.90
2018-10-21T10:24:04.629Z,91.50
2018-10-21T10:29:27.575Z,91.00
2018-10-21T10:34:50.549Z,89.80
2018-10-21T10:40:13.664Z,90.20
2018-10-21T10:45:36.278Z,90.00
2018-10-21T10:50:59.009Z,88.00
2018-10-21T10:56:21.115Z,86.60
2018-10-21T11:01:42.887Z,87.20
2018-10-21T11:07:04.706Z,88.00
2018-10-21T11:12:26.838Z,87.20
2018-10-21T11:17:49.000Z,84.70
2018-10-21T11:23:11.374Z,80.90
2018-10-21T11:28:33.655Z,80.10
2018-10-21T11:33:55.595Z,79.10
2018-10-21T11:39:17.861Z,80.60
2018-10-21T11:44:39.711Z,77.20
2018-10-21T11:50:01.863Z,79.10
2018-10-21T11:55:23.794Z,73.00
2018-10-21T12:00:47.295Z,75.60
2018-10-21T12:06:09.467Z,67.90
2018-10-21T12:11:31.769Z,69.40
2018-10-21T12:16:53.578Z,63.30
2018-10-21T12:22:15.914Z,64.20
2018-10-21T12:27:37.704Z,65.40
2018-10-21T12:33:00.054Z,60.40
2018-10-21T12:38:21.936Z,59.70
2018-10-21T12:43:44.103Z,58.20
2018-10-21T12:49:06.066Z,58.00
2018-10-21T12:54:28.041Z,59.90
2018-10-21T12:59:50.033Z,60.80
2018-10-21T13:05:12.240Z,60.20
2018-10-21T13:10:34.067Z,72.90
2018-10-21T13:15:56.440Z,82.90
2018-10-21T13:21:18.070Z,85.40
2018-10-21T13:26:40.298Z,87.20
2018-10-21T13:32:03.725Z,89.70
2018-10-21T13:37:26.125Z,88.60
2018-10-21T13:42:48.120Z,89.90
2018-10-21T13:48:10.319Z,87.70
2018-10-21T13:53:32.115Z,90.00
2018-10-21T13:58:54.236Z,90.30
2018-10-21T14:04:16.180Z,90.30
2018-10-21T14:09:38.813Z,90.90
2018-10-21T14:15:01.599Z,89.80
2018-10-21T14:20:23.942Z,88.90
2018-10-21T14:25:45.802Z,87.50
2018-10-21T14:31:07.860Z,88.90
2018-10-21T14:36:29.782Z,89.70
2018-10-21T14:41:52.196Z,88.40
2018-10-21T14:47:14.068Z,88.20
2018-10-21T14:52:36.581Z,87.40
2018-10-21T14:57:58.821Z,88.80
2018-10-21T15:03:20.609Z,90.00
2018-10-21T15:08:42.341Z,88.60
2018-10-21T15:14:05.295Z,89.10
2018-10-21T15:19:27.217Z,90.90
2018-10-21T15:24:49.175Z,91.70
2018-10-21T15:30:12.328Z,92.10
2018-10-21T15:35:34.326Z,92.30
2018-10-21T15:40:56.234Z,92.50
2018-10-21T15:46:18.740Z,92.10
2018-10-21T15:51:40.990Z,92.30
2018-10-21T15:57:02.746Z,92.50
2018-10-21T16:02:25.231Z,94.10
2018-10-21T16:07:48.034Z,93.90
2018-10-21T16:13:11.034Z,78.00
2018-10-21T16:18:33.605Z,70.30
2018-10-21T16:23:55.753Z,67.40
2018-10-21T16:29:17.894Z,67.90
2018-10-21T16:34:40.286Z,68.90
2018-10-21T16:40:02.063Z,69.70
2018-10-21T16:45:24.181Z,66.70
2018-10-21T16:50:46.323Z,67.40
2018-10-21T16:56:08.545Z,68.70
2018-10-21T17:01:30.553Z,69.60
2018-10-21T17:06:52.702Z,70.70
2018-10-21T17:12:14.573Z,72.10
2018-10-21T17:17:36.758Z,72.90
2018-10-21T17:22:58.757Z,73.80
2018-10-21T17:28:20.886Z,75.20
2018-10-21T17:33:42.671Z,76.30
2018-10-21T17:39:05.806Z,76.60
2018-10-21T17:44:27.762Z,75.80
2018-10-21T17:49:49.497Z,76.10
2018-10-21T17:55:11.861Z,76.40
2018-10-21T18:00:33.837Z,76.50
2018-10-21T18:05:56.047Z,76.60
2018-10-21T18:11:17.991Z,77.80
2018-10-21T18:16:40.004Z,79.50
2018-10-21T18:22:01.791Z,81.20
2018-10-21T18:27:24.489Z,82.20
2018-10-21T18:32:46.740Z,83.60
2018-10-21T18:38:09.116Z,85.10
2018-10-21T18:43:31.380Z,85.80
2018-10-21T18:48:53.692Z,88.10
2018-10-21T18:54:15.666Z,88.40
2018-10-21T18:59:38.293Z,88.30
2018-10-21T19:05:00.000Z,88.90
2018-10-21T19:10:22.105Z,89.60
2018-10-21T19:15:44.403Z,89.90
2018-10-21T19:21:06.356Z,90.00
2018-10-21T19:26:28.188Z,90.30
2018-10-21T19:31:51.049Z,90.70
2018-10-21T19:37:13.190Z,91.00
2018-10-21T19:42:35.431Z,91.40
2018-10-21T19:47:57.295Z,91.30
2018-10-21T19:53:19.396Z,91.00
2018-10-21T19:58:41.385Z,90.80
2018-10-21T20:04:04.671Z,90.80
2018-10-21T20:09:26.542Z,91.00
2018-10-21T20:14:48.488Z,91.40
2018-10-21T20:20:11.472Z,91.60
2018-10-21T20:25:33.618Z,92.20
2018-10-21T20:30:55.568Z,92.30
2018-10-21T20:36:17.956Z,92.40
2018-10-21T20:41:40.303Z,92.60
2018-10-21T20:47:02.350Z,92.90
2018-10-21T20:52:24.582Z,93.10
2018-10-21T20:57:46.700Z,93.60
2018-10-21T21:03:09.492Z,93.80
2018-10-21T21:08:31.418Z,94.00
2018-10-21T21:13:53.377Z,94.40
2018-10-21T21:19:15.283Z,94.50
2018-10-21T21:24:39.632Z,94.50
2018-10-21T21:30:05.217Z,94.60
2018-10-21T21:35:27.187Z,94.70
2018-10-21T21:40:49.647Z,94.70
2018-10-21T21:46:11.627Z,94.50
2018-10-21T21:51:33.726Z,94.60
2018-10-21T21:56:55.607Z,94.40
2018-10-21T22:02:17.770Z,94.20
2018-10-21T22:07:40.792Z,94.10
2018-10-21T22:13:03.082Z,93.90
2018-10-21T22:18:25.690Z,93.60
2018-10-21T22:23:48.637Z,93.50
2018-10-21T22:29:10.888Z,93.90
2018-10-21T22:34:32.832Z,94.00
2018-10-21T22:39:54.966Z,94.20
2018-10-21T22:45:17.120Z,94.00
2018-10-21T22:50:39.146Z,94.00
2018-10-21T22:56:00.951Z,94.30
2018-10-21T23:01:23.168Z,94.50
2018-10-21T23:06:45.051Z,94.70
2018-10-21T23:12:07.683Z,94.90
2018-10-21T23:17:29.910Z,95.00
2018-10-21T23:22:51.804Z,95.10
2018-10-21T23:28:13.478Z,95.10
2018-10-21T23:33:35.553Z,95.00
2018-10-21T23:38:57.441Z,94.80
2018-10-21T23:44:19.719Z,94.60
2018-10-21T23:49:41.526Z,95.00
2018-10-21T23:55:03.627Z,95.50
